sensor_id;sensor_type;location;lat;lon;timestamp;temperature;humidity
60717;DHT22;46566;52.700;6.192;2023-04-09T00:01:07;9.40;99.90
60717;DHT22;46566;52.700;6.192;2023-04-09T00:03:33;9.40;99.90
60717;DHT22;46566;52.700;6.192;2023-04-09T00:05:59;9.30;99.90
60717;DHT22;46566;52.700;6.192;2023-04-09T00:08:24;9.30;99.90
60717;DHT22;46566;52.700;6.192;2023-04-09T00:10:50;9.30;99.90
60717;DHT22;46566;52.700;6.192;2023-04-09T00:13:16;9.20;99.90
60717;DHT22;46566;52.700;6.192;2023-04-09T00:15:42;9.20;99.90
60717;DHT22;46566;52.700;6.192;2023-04-09T00:18:08;9.20;99.90
60717;DHT22;46566;52.700;6.192;2023-04-09T00:20:34;9.20;99.90
60717;DHT22;46566;52.700;6.192;2023-04-09T00:22:59;9.20;99.90
60717;DHT22;46566;52.700;6.192;2023-04-09T00:25:25;9.20;99.90
60717;DHT22;46566;52.700;6.192;2023-04-09T00:27:51;9.20;99.90
60717;DHT22;46566;52.700;6.192;2023-04-09T00:30:16;9.20;99.90
60717;DHT22;46566;52.700;6.192;2023-04-09T00:32:42;9.20;99.90
60717;DHT22;46566;52.700;6.192;2023-04-09T00:35:08;9.20;99.90
60717;DHT22;46566;52.700;6.192;2023-04-09T00:37:33;9.20;99.90
60717;DHT22;46566;52.700;6.192;2023-04-09T00:39:59;9.20;99.90
60717;DHT22;46566;52.700;6.192;2023-04-09T00:42:25;9.20;99.90
60717;DHT22;46566;52.700;6.192;2023-04-09T00:44:51;9.20;99.90
60717;DHT22;46566;52.700;6.192;2023-04-09T00:47:17;9.20;99.90
60717;DHT22;46566;52.700;6.192;2023-04-09T00:49:43;9.20;99.90
60717;DHT22;46566;52.700;6.192;2023-04-09T00:52:09;9.20;99.90
60717;DHT22;46566;52.700;6.192;2023-04-09T00:54:35;9.20;99.90
60717;DHT22;46566;52.700;6.192;2023-04-09T00:57:01;9.20;99.90
60717;DHT22;46566;52.700;6.192;2023-04-09T00:59:27;9.20;99.90
60717;DHT22;46566;52.700;6.192;2023-04-09T01:01:53;9.20;99.90
60717;DHT22;46566;52.700;6.192;2023-04-09T01:04:18;9.10;99.90
60717;DHT22;46566;52.700;6.192;2023-04-09T01:06:48;9.10;99.90
60717;DHT22;46566;52.700;6.192;2023-04-09T01:12:30;9.10;99.90
60717;DHT22;46566;52.700;6.192;2023-04-09T01:17:30;9.10;99.90
60717;DHT22;46566;52.700;6.192;2023-04-09T01:20:05;9.10;99.90
60717;DHT22;46566;52.700;6.192;2023-04-09T01:22:39;9.10;99.90
60717;DHT22;46566;52.700;6.192;2023-04-09T01:28:03;9.10;99.90
60717;DHT22;46566;52.700;6.192;2023-04-09T01:30:29;9.10;99.90
60717;DHT22;46566;52.700;6.192;2023-04-09T01:32:56;9.10;99.90
60717;DHT22;46566;52.700;6.192;2023-04-09T01:35:22;9.10;99.90
60717;DHT22;46566;52.700;6.192;2023-04-09T01:37:48;9.10;99.90
60717;DHT22;46566;52.700;6.192;2023-04-09T01:40:14;9.10;99.90
60717;DHT22;46566;52.700;6.192;2023-04-09T01:42:40;9.10;99.90
60717;DHT22;46566;52.700;6.192;2023-04-09T01:45:06;9.10;99.90
60717;DHT22;46566;52.700;6.192;2023-04-09T01:47:32;9.10;99.90
60717;DHT22;46566;52.700;6.192;2023-04-09T01:49:58;9.10;99.90
60717;DHT22;46566;52.700;6.192;2023-04-09T01:52:24;9.10;99.90
60717;DHT22;46566;52.700;6.192;2023-04-09T01:54:50;9.10;99.90
60717;DHT22;46566;52.700;6.192;2023-04-09T01:57:16;9.10;99.90
60717;DHT22;46566;52.700;6.192;2023-04-09T01:59:41;9.10;99.90
60717;DHT22;46566;52.700;6.192;2023-04-09T02:02:09;9.10;99.90
60717;DHT22;46566;52.700;6.192;2023-04-09T02:04:38;9.00;99.90
60717;DHT22;46566;52.700;6.192;2023-04-09T02:07:16;9.00;99.90
60717;DHT22;46566;52.700;6.192;2023-04-09T02:09:43;9.00;99.90
60717;DHT22;46566;52.700;6.192;2023-04-09T02:12:11;9.00;99.90
60717;DHT22;46566;52.700;6.192;2023-04-09T02:14:37;9.00;99.90
60717;DHT22;46566;52.700;6.192;2023-04-09T02:17:04;9.00;99.90
60717;DHT22;46566;52.700;6.192;2023-04-09T02:19:43;8.90;99.90
60717;DHT22;46566;52.700;6.192;2023-04-09T02:22:09;8.90;99.90
60717;DHT22;46566;52.700;6.192;2023-04-09T02:24:35;8.90;99.90
60717;DHT22;46566;52.700;6.192;2023-04-09T02:27:01;8.90;99.90
60717;DHT22;46566;52.700;6.192;2023-04-09T02:29:27;8.90;99.90
60717;DHT22;46566;52.700;6.192;2023-04-09T02:31:52;8.90;99.90
60717;DHT22;46566;52.700;6.192;2023-04-09T02:34:18;8.90;99.90
60717;DHT22;46566;52.700;6.192;2023-04-09T02:36:44;8.90;99.90
60717;DHT22;46566;52.700;6.192;2023-04-09T02:39:10;8.90;99.90
60717;DHT22;46566;52.700;6.192;2023-04-09T02:41:35;8.90;99.90
60717;DHT22;46566;52.700;6.192;2023-04-09T02:44:01;8.90;99.90
60717;DHT22;46566;52.700;6.192;2023-04-09T02:46:27;8.90;99.90
60717;DHT22;46566;52.700;6.192;2023-04-09T02:48:52;8.90;99.90
60717;DHT22;46566;52.700;6.192;2023-04-09T02:51:19;8.90;99.90
60717;DHT22;46566;52.700;6.192;2023-04-09T02:53:44;8.90;99.90
60717;DHT22;46566;52.700;6.192;2023-04-09T02:56:10;8.90;99.90
60717;DHT22;46566;52.700;6.192;2023-04-09T02:58:36;8.90;99.90
60717;DHT22;46566;52.700;6.192;2023-04-09T03:01:01;8.90;99.90
60717;DHT22;46566;52.700;6.192;2023-04-09T03:03:27;8.90;99.90
60717;DHT22;46566;52.700;6.192;2023-04-09T03:05:53;8.80;99.90
60717;DHT22;46566;52.700;6.192;2023-04-09T03:08:19;8.80;99.90
60717;DHT22;46566;52.700;6.192;2023-04-09T03:10:44;8.80;99.90
60717;DHT22;46566;52.700;6.192;2023-04-09T03:13:10;8.70;99.90
60717;DHT22;46566;52.700;6.192;2023-04-09T03:15:35;8.70;99.90
60717;DHT22;46566;52.700;6.192;2023-04-09T03:18:01;8.80;99.90
60717;DHT22;46566;52.700;6.192;2023-04-09T03:20:27;8.80;99.90
60717;DHT22;46566;52.700;6.192;2023-04-09T03:22:52;8.70;99.90
60717;DHT22;46566;52.700;6.192;2023-04-09T03:25:30;8.70;99.90
60717;DHT22;46566;52.700;6.192;2023-04-09T03:30:38;8.70;99.90
60717;DHT22;46566;52.700;6.192;2023-04-09T03:33:05;8.70;99.90
60717;DHT22;46566;52.700;6.192;2023-04-09T03:35:35;8.70;99.90
60717;DHT22;46566;52.700;6.192;2023-04-09T03:38:01;8.70;99.90
60717;DHT22;46566;52.700;6.192;2023-04-09T03:40:27;8.60;99.90
60717;DHT22;46566;52.700;6.192;2023-04-09T03:42:52;8.70;99.90
60717;DHT22;46566;52.700;6.192;2023-04-09T03:45:18;8.60;99.90
60717;DHT22;46566;52.700;6.192;2023-04-09T03:47:47;8.60;99.90
60717;DHT22;46566;52.700;6.192;2023-04-09T03:50:13;8.60;99.90
60717;DHT22;46566;52.700;6.192;2023-04-09T03:52:45;8.70;99.90
60717;DHT22;46566;52.700;6.192;2023-04-09T03:55:10;8.70;99.90
60717;DHT22;46566;52.700;6.192;2023-04-09T03:57:36;8.60;99.90
60717;DHT22;46566;52.700;6.192;2023-04-09T04:00:05;8.60;99.90
60717;DHT22;46566;52.700;6.192;2023-04-09T04:02:49;8.60;99.90
60717;DHT22;46566;52.700;6.192;2023-04-09T04:05:17;8.70;99.90
60717;DHT22;46566;52.700;6.192;2023-04-09T04:07:47;8.70;99.90
60717;DHT22;46566;52.700;6.192;2023-04-09T04:10:17;8.60;99.90
60717;DHT22;46566;52.700;6.192;2023-04-09T04:12:45;8.60;99.90
60717;DHT22;46566;52.700;6.192;2023-04-09T04:15:31;8.60;99.90
60717;DHT22;46566;52.700;6.192;2023-04-09T04:17:57;8.60;99.90
60717;DHT22;46566;52.700;6.192;2023-04-09T04:20:43;8.60;99.90
60717;DHT22;46566;52.700;6.192;2023-04-09T04:23:12;8.60;99.90
60717;DHT22;46566;52.700;6.192;2023-04-09T04:25:45;8.50;99.90
60717;DHT22;46566;52.700;6.192;2023-04-09T04:28:15;8.50;99.90
60717;DHT22;46566;52.700;6.192;2023-04-09T04:30:41;8.50;99.90
60717;DHT22;46566;52.700;6.192;2023-04-09T04:33:07;8.50;99.90
60717;DHT22;46566;52.700;6.192;2023-04-09T04:35:42;8.50;99.90
60717;DHT22;46566;52.700;6.192;2023-04-09T04:38:15;8.50;99.90
60717;DHT22;46566;52.700;6.192;2023-04-09T04:40:40;8.50;99.90
60717;DHT22;46566;52.700;6.192;2023-04-09T04:43:06;8.50;99.90
60717;DHT22;46566;52.700;6.192;2023-04-09T04:45:32;8.50;99.90
60717;DHT22;46566;52.700;6.192;2023-04-09T04:48:03;8.50;99.90
60717;DHT22;46566;52.700;6.192;2023-04-09T04:50:29;8.50;99.90
60717;DHT22;46566;52.700;6.192;2023-04-09T04:53:00;8.50;99.90
60717;DHT22;46566;52.700;6.192;2023-04-09T04:55:30;8.50;99.90
60717;DHT22;46566;52.700;6.192;2023-04-09T04:57:58;8.50;99.90
60717;DHT22;46566;52.700;6.192;2023-04-09T05:00:27;8.50;99.90
60717;DHT22;46566;52.700;6.192;2023-04-09T05:02:54;8.50;99.90
60717;DHT22;46566;52.700;6.192;2023-04-09T05:05:24;8.50;99.90
60717;DHT22;46566;52.700;6.192;2023-04-09T05:07:52;8.50;99.90
60717;DHT22;46566;52.700;6.192;2023-04-09T05:10:19;8.50;99.90
60717;DHT22;46566;52.700;6.192;2023-04-09T05:12:45;8.50;99.90
60717;DHT22;46566;52.700;6.192;2023-04-09T05:15:17;8.40;99.90
60717;DHT22;46566;52.700;6.192;2023-04-09T05:17:44;8.40;99.90
60717;DHT22;46566;52.700;6.192;2023-04-09T05:20:10;8.40;99.90
60717;DHT22;46566;52.700;6.192;2023-04-09T05:22:50;8.40;99.90
60717;DHT22;46566;52.700;6.192;2023-04-09T05:25:16;8.40;99.90
60717;DHT22;46566;52.700;6.192;2023-04-09T05:27:42;8.40;99.90
60717;DHT22;46566;52.700;6.192;2023-04-09T05:30:09;8.40;99.90
60717;DHT22;46566;52.700;6.192;2023-04-09T05:32:35;8.40;99.90
60717;DHT22;46566;52.700;6.192;2023-04-09T05:35:02;8.40;99.90
60717;DHT22;46566;52.700;6.192;2023-04-09T05:37:29;8.40;99.90
60717;DHT22;46566;52.700;6.192;2023-04-09T05:39:55;8.40;99.90
60717;DHT22;46566;52.700;6.192;2023-04-09T05:42:21;8.40;99.90
60717;DHT22;46566;52.700;6.192;2023-04-09T05:44:56;8.40;99.90
60717;DHT22;46566;52.700;6.192;2023-04-09T05:47:23;8.40;99.90
60717;DHT22;46566;52.700;6.192;2023-04-09T05:50:13;8.40;99.90
60717;DHT22;46566;52.700;6.192;2023-04-09T05:52:39;8.40;99.90
60717;DHT22;46566;52.700;6.192;2023-04-09T05:55:05;8.40;99.90
60717;DHT22;46566;52.700;6.192;2023-04-09T05:57:41;8.40;99.90
60717;DHT22;46566;52.700;6.192;2023-04-09T06:00:07;8.40;99.90
60717;DHT22;46566;52.700;6.192;2023-04-09T06:02:41;8.40;99.90
60717;DHT22;46566;52.700;6.192;2023-04-09T06:05:07;8.40;99.90
60717;DHT22;46566;52.700;6.192;2023-04-09T06:07:33;8.50;99.90
60717;DHT22;46566;52.700;6.192;2023-04-09T06:09:59;8.50;99.90
60717;DHT22;46566;52.700;6.192;2023-04-09T06:15:15;8.50;99.90
60717;DHT22;46566;52.700;6.192;2023-04-09T06:17:41;8.50;99.90
60717;DHT22;46566;52.700;6.192;2023-04-09T06:20:06;8.50;99.90
60717;DHT22;46566;52.700;6.192;2023-04-09T06:22:47;8.50;99.90
60717;DHT22;46566;52.700;6.192;2023-04-09T06:25:13;8.50;99.90
60717;DHT22;46566;52.700;6.192;2023-04-09T06:27:38;8.50;99.90
60717;DHT22;46566;52.700;6.192;2023-04-09T06:30:04;8.50;99.90
60717;DHT22;46566;52.700;6.192;2023-04-09T06:32:30;8.50;99.90
60717;DHT22;46566;52.700;6.192;2023-04-09T06:37:47;8.60;99.90
60717;DHT22;46566;52.700;6.192;2023-04-09T06:40:13;8.60;99.90
60717;DHT22;46566;52.700;6.192;2023-04-09T06:42:39;8.70;99.90
60717;DHT22;46566;52.700;6.192;2023-04-09T06:45:30;8.70;99.90
60717;DHT22;46566;52.700;6.192;2023-04-09T06:47:55;8.70;99.90
60717;DHT22;46566;52.700;6.192;2023-04-09T06:50:21;8.70;99.90
60717;DHT22;46566;52.700;6.192;2023-04-09T06:52:46;8.60;99.90
60717;DHT22;46566;52.700;6.192;2023-04-09T06:55:27;8.60;99.90
60717;DHT22;46566;52.700;6.192;2023-04-09T06:57:53;8.60;99.90
60717;DHT22;46566;52.700;6.192;2023-04-09T07:00:19;8.60;99.90
60717;DHT22;46566;52.700;6.192;2023-04-09T07:02:44;8.70;99.90
60717;DHT22;46566;52.700;6.192;2023-04-09T07:05:10;8.70;99.90
60717;DHT22;46566;52.700;6.192;2023-04-09T07:10:27;8.70;99.90
60717;DHT22;46566;52.700;6.192;2023-04-09T07:12:52;8.70;99.90
60717;DHT22;46566;52.700;6.192;2023-04-09T07:15:18;8.80;99.90
60717;DHT22;46566;52.700;6.192;2023-04-09T07:20:33;8.80;99.90
60717;DHT22;46566;52.700;6.192;2023-04-09T07:22:59;8.90;99.90
60717;DHT22;46566;52.700;6.192;2023-04-09T07:25:25;9.00;99.90
60717;DHT22;46566;52.700;6.192;2023-04-09T07:28:11;9.00;99.90
60717;DHT22;46566;52.700;6.192;2023-04-09T07:30:37;9.00;99.90
60717;DHT22;46566;52.700;6.192;2023-04-09T07:33:03;9.00;99.90
60717;DHT22;46566;52.700;6.192;2023-04-09T07:35:29;9.10;99.90
60717;DHT22;46566;52.700;6.192;2023-04-09T07:37:55;9.00;99.90
60717;DHT22;46566;52.700;6.192;2023-04-09T07:43:12;9.00;99.90
60717;DHT22;46566;52.700;6.192;2023-04-09T07:45:38;9.00;99.90
60717;DHT22;46566;52.700;6.192;2023-04-09T07:48:04;9.00;99.90
60717;DHT22;46566;52.700;6.192;2023-04-09T07:50:41;9.00;99.90
60717;DHT22;46566;52.700;6.192;2023-04-09T07:53:09;9.00;99.90
60717;DHT22;46566;52.700;6.192;2023-04-09T07:55:36;9.10;99.90
60717;DHT22;46566;52.700;6.192;2023-04-09T07:58:02;9.20;99.90
60717;DHT22;46566;52.700;6.192;2023-04-09T08:03:20;9.20;99.90
60717;DHT22;46566;52.700;6.192;2023-04-09T08:05:46;9.30;99.90
60717;DHT22;46566;52.700;6.192;2023-04-09T08:08:12;9.30;99.90
60717;DHT22;46566;52.700;6.192;2023-04-09T08:10:55;9.40;99.90
60717;DHT22;46566;52.700;6.192;2023-04-09T08:13:24;9.40;99.90
60717;DHT22;46566;52.700;6.192;2023-04-09T08:15:50;9.50;99.90
60717;DHT22;46566;52.700;6.192;2023-04-09T08:18:16;9.30;99.90
60717;DHT22;46566;52.700;6.192;2023-04-09T08:20:41;9.60;99.90
60717;DHT22;46566;52.700;6.192;2023-04-09T08:25:51;9.70;99.90
60717;DHT22;46566;52.700;6.192;2023-04-09T08:30:43;9.90;99.90
60717;DHT22;46566;52.700;6.192;2023-04-09T08:33:09;9.90;99.90
60717;DHT22;46566;52.700;6.192;2023-04-09T08:38:25;10.20;99.90
60717;DHT22;46566;52.700;6.192;2023-04-09T08:40:51;10.30;99.90
60717;DHT22;46566;52.700;6.192;2023-04-09T08:51:53;10.80;99.90
60717;DHT22;46566;52.700;6.192;2023-04-09T08:54:20;11.10;99.90
60717;DHT22;46566;52.700;6.192;2023-04-09T08:56:45;11.20;99.90
60717;DHT22;46566;52.700;6.192;2023-04-09T09:02:06;11.70;99.90
60717;DHT22;46566;52.700;6.192;2023-04-09T09:10:07;12.50;99.90
60717;DHT22;46566;52.700;6.192;2023-04-09T09:57:11;15.30;99.90
60717;DHT22;46566;52.700;6.192;2023-04-09T09:59:42;15.30;99.90
60717;DHT22;46566;52.700;6.192;2023-04-09T10:05:02;15.30;99.90
60717;DHT22;46566;52.700;6.192;2023-04-09T10:07:30;15.30;99.90
60717;DHT22;46566;52.700;6.192;2023-04-09T10:09:56;15.30;99.90
60717;DHT22;46566;52.700;6.192;2023-04-09T10:12:35;15.50;99.90
60717;DHT22;46566;52.700;6.192;2023-04-09T10:15:00;15.70;99.90
60717;DHT22;46566;52.700;6.192;2023-04-09T10:17:29;15.70;99.90
60717;DHT22;46566;52.700;6.192;2023-04-09T10:23:08;16.00;99.90
60717;DHT22;46566;52.700;6.192;2023-04-09T10:25:34;16.30;99.90
60717;DHT22;46566;52.700;6.192;2023-04-09T10:28:00;16.50;99.90
60717;DHT22;46566;52.700;6.192;2023-04-09T10:33:20;16.90;99.90
60717;DHT22;46566;52.700;6.192;2023-04-09T10:35:50;17.40;99.90
60717;DHT22;46566;52.700;6.192;2023-04-09T10:41:14;18.00;79.00
60717;DHT22;46566;52.700;6.192;2023-04-09T10:43:41;17.60;70.80
60717;DHT22;46566;52.700;6.192;2023-04-09T10:49:06;16.30;98.80
60717;DHT22;46566;52.700;6.192;2023-04-09T10:51:35;16.10;99.00
60717;DHT22;46566;52.700;6.192;2023-04-09T10:59:31;16.40;99.90
60717;DHT22;46566;52.700;6.192;2023-04-09T11:02:20;16.50;94.20
60717;DHT22;46566;52.700;6.192;2023-04-09T11:07:26;16.10;99.90
60717;DHT22;46566;52.700;6.192;2023-04-09T11:12:42;16.20;99.90
60717;DHT22;46566;52.700;6.192;2023-04-09T11:15:14;16.40;99.90
60717;DHT22;46566;52.700;6.192;2023-04-09T11:20:34;16.30;80.90
60717;DHT22;46566;52.700;6.192;2023-04-09T11:23:00;16.10;96.00
60717;DHT22;46566;52.700;6.192;2023-04-09T11:25:29;16.00;91.40
60717;DHT22;46566;52.700;6.192;2023-04-09T11:28:05;16.10;82.00
60717;DHT22;46566;52.700;6.192;2023-04-09T11:30:32;16.00;99.90
60717;DHT22;46566;52.700;6.192;2023-04-09T11:47:14;16.10;99.90
60717;DHT22;46566;52.700;6.192;2023-04-09T11:49:44;16.00;91.10
60717;DHT22;46566;52.700;6.192;2023-04-09T11:52:12;15.80;93.70
60717;DHT22;46566;52.700;6.192;2023-04-09T11:54:37;15.80;78.00
60717;DHT22;46566;52.700;6.192;2023-04-09T11:59:54;15.40;99.90
60717;DHT22;46566;52.700;6.192;2023-04-09T12:02:19;15.30;99.90
60717;DHT22;46566;52.700;6.192;2023-04-09T12:04:50;15.20;76.70
60717;DHT22;46566;52.700;6.192;2023-04-09T12:10:07;15.50;86.90
60717;DHT22;46566;52.700;6.192;2023-04-09T12:12:40;15.50;72.70
60717;DHT22;46566;52.700;6.192;2023-04-09T12:17:58;15.70;73.70
60717;DHT22;46566;52.700;6.192;2023-04-09T12:22:53;16.10;72.90
60717;DHT22;46566;52.700;6.192;2023-04-09T12:28:11;16.10;68.80
60717;DHT22;46566;52.700;6.192;2023-04-09T12:30:38;16.10;70.00
60717;DHT22;46566;52.700;6.192;2023-04-09T12:33:03;16.20;70.50
60717;DHT22;46566;52.700;6.192;2023-04-09T12:35:38;16.40;74.60
60717;DHT22;46566;52.700;6.192;2023-04-09T12:38:04;16.60;70.20
60717;DHT22;46566;52.700;6.192;2023-04-09T12:40:30;16.80;69.20
60717;DHT22;46566;52.700;6.192;2023-04-09T12:42:55;16.90;68.00
60717;DHT22;46566;52.700;6.192;2023-04-09T12:45:21;17.10;67.00
60717;DHT22;46566;52.700;6.192;2023-04-09T12:50:37;17.20;66.70
60717;DHT22;46566;52.700;6.192;2023-04-09T12:53:03;17.10;64.90
60717;DHT22;46566;52.700;6.192;2023-04-09T12:55:29;17.10;65.90
60717;DHT22;46566;52.700;6.192;2023-04-09T12:58:13;17.20;65.10
60717;DHT22;46566;52.700;6.192;2023-04-09T13:00:38;17.50;67.50
60717;DHT22;46566;52.700;6.192;2023-04-09T13:03:04;17.40;69.20
60717;DHT22;46566;52.700;6.192;2023-04-09T13:05:29;17.20;66.70
60717;DHT22;46566;52.700;6.192;2023-04-09T13:08:00;17.10;66.10
60717;DHT22;46566;52.700;6.192;2023-04-09T13:10:44;16.90;65.40
60717;DHT22;46566;52.700;6.192;2023-04-09T13:13:09;16.80;64.50
60717;DHT22;46566;52.700;6.192;2023-04-09T13:15:38;17.00;64.80
60717;DHT22;46566;52.700;6.192;2023-04-09T13:18:04;17.00;66.30
60717;DHT22;46566;52.700;6.192;2023-04-09T13:23:21;17.20;67.00
60717;DHT22;46566;52.700;6.192;2023-04-09T13:25:46;17.30;64.30
60717;DHT22;46566;52.700;6.192;2023-04-09T13:28:12;17.30;64.50
60717;DHT22;46566;52.700;6.192;2023-04-09T13:30:53;17.30;64.50
60717;DHT22;46566;52.700;6.192;2023-04-09T13:33:18;17.30;62.20
60717;DHT22;46566;52.700;6.192;2023-04-09T13:41:16;17.40;63.30
60717;DHT22;46566;52.700;6.192;2023-04-09T13:43:42;17.40;62.80
60717;DHT22;46566;52.700;6.192;2023-04-09T13:54:31;17.20;59.70
60717;DHT22;46566;52.700;6.192;2023-04-09T13:56:57;17.10;63.30
60717;DHT22;46566;52.700;6.192;2023-04-09T13:59:22;17.10;62.00
60717;DHT22;46566;52.700;6.192;2023-04-09T14:01:48;17.30;63.80
60717;DHT22;46566;52.700;6.192;2023-04-09T14:04:14;17.30;61.50
60717;DHT22;46566;52.700;6.192;2023-04-09T14:09:30;17.30;61.40
60717;DHT22;46566;52.700;6.192;2023-04-09T14:11:56;17.20;60.40
60717;DHT22;46566;52.700;6.192;2023-04-09T14:14:22;17.10;59.30
60717;DHT22;46566;52.700;6.192;2023-04-09T14:17:02;17.10;58.40
60717;DHT22;46566;52.700;6.192;2023-04-09T14:19:28;17.10;60.10
60717;DHT22;46566;52.700;6.192;2023-04-09T14:21:54;17.20;60.10
60717;DHT22;46566;52.700;6.192;2023-04-09T14:24:19;17.40;62.10
60717;DHT22;46566;52.700;6.192;2023-04-09T14:30:05;17.40;61.60
60717;DHT22;46566;52.700;6.192;2023-04-09T14:33:00;17.40;59.60
60717;DHT22;46566;52.700;6.192;2023-04-09T14:35:26;17.30;57.40
60717;DHT22;46566;52.700;6.192;2023-04-09T14:38:02;17.40;60.30
60717;DHT22;46566;52.700;6.192;2023-04-09T14:40:52;17.40;61.60
60717;DHT22;46566;52.700;6.192;2023-04-09T14:43:26;17.40;58.20
60717;DHT22;46566;52.700;6.192;2023-04-09T14:46:36;17.40;57.60
60717;DHT22;46566;52.700;6.192;2023-04-09T14:49:02;17.30;59.90
60717;DHT22;46566;52.700;6.192;2023-04-09T14:51:28;17.20;58.00
60717;DHT22;46566;52.700;6.192;2023-04-09T14:54:13;17.20;58.90
60717;DHT22;46566;52.700;6.192;2023-04-09T14:56:39;17.20;57.20
60717;DHT22;46566;52.700;6.192;2023-04-09T14:59:04;17.20;58.40
60717;DHT22;46566;52.700;6.192;2023-04-09T15:01:30;17.20;57.70
60717;DHT22;46566;52.700;6.192;2023-04-09T15:03:56;17.20;57.60
60717;DHT22;46566;52.700;6.192;2023-04-09T15:11:38;17.20;57.20
60717;DHT22;46566;52.700;6.192;2023-04-09T15:14:04;17.00;57.50
60717;DHT22;46566;52.700;6.192;2023-04-09T15:19:21;16.80;59.40
60717;DHT22;46566;52.700;6.192;2023-04-09T15:21:46;16.70;57.50
60717;DHT22;46566;52.700;6.192;2023-04-09T15:24:12;16.50;57.10
60717;DHT22;46566;52.700;6.192;2023-04-09T15:26:53;16.50;57.40
60717;DHT22;46566;52.700;6.192;2023-04-09T15:29:18;16.50;58.10
60717;DHT22;46566;52.700;6.192;2023-04-09T15:31:44;16.50;60.20
60717;DHT22;46566;52.700;6.192;2023-04-09T15:34:09;16.50;59.80
60717;DHT22;46566;52.700;6.192;2023-04-09T15:36:35;16.50;60.50
60717;DHT22;46566;52.700;6.192;2023-04-09T15:41:55;16.40;60.00
60717;DHT22;46566;52.700;6.192;2023-04-09T15:44:21;16.30;60.00
60717;DHT22;46566;52.700;6.192;2023-04-09T15:46:47;16.20;59.50
60717;DHT22;46566;52.700;6.192;2023-04-09T15:52:04;16.10;60.30
60717;DHT22;46566;52.700;6.192;2023-04-09T15:54:30;15.90;60.50
60717;DHT22;46566;52.700;6.192;2023-04-09T15:56:55;15.80;61.60
60717;DHT22;46566;52.700;6.192;2023-04-09T15:59:33;15.70;62.00
60717;DHT22;46566;52.700;6.192;2023-04-09T16:01:59;15.70;61.90
60717;DHT22;46566;52.700;6.192;2023-04-09T16:04:24;15.60;62.30
60717;DHT22;46566;52.700;6.192;2023-04-09T16:06:51;15.60;61.90
60717;DHT22;46566;52.700;6.192;2023-04-09T16:09:18;15.50;61.60
60717;DHT22;46566;52.700;6.192;2023-04-09T16:14:34;15.50;63.80
60717;DHT22;46566;52.700;6.192;2023-04-09T16:16:59;15.40;63.00
60717;DHT22;46566;52.700;6.192;2023-04-09T16:19:25;15.40;63.20
60717;DHT22;46566;52.700;6.192;2023-04-09T16:24:42;15.40;63.40
60717;DHT22;46566;52.700;6.192;2023-04-09T16:27:08;15.30;62.00
60717;DHT22;46566;52.700;6.192;2023-04-09T16:29:33;15.30;62.70
60717;DHT22;46566;52.700;6.192;2023-04-09T16:32:14;15.20;63.70
60717;DHT22;46566;52.700;6.192;2023-04-09T16:34:40;15.20;63.10
60717;DHT22;46566;52.700;6.192;2023-04-09T16:37:05;15.20;62.70
60717;DHT22;46566;52.700;6.192;2023-04-09T16:39:32;15.20;62.10
60717;DHT22;46566;52.700;6.192;2023-04-09T16:41:57;15.10;63.60
60717;DHT22;46566;52.700;6.192;2023-04-09T16:47:14;15.10;63.80
60717;DHT22;46566;52.700;6.192;2023-04-09T16:49:40;15.00;63.50
60717;DHT22;46566;52.700;6.192;2023-04-09T16:52:05;15.00;63.60
60717;DHT22;46566;52.700;6.192;2023-04-09T16:57:22;14.80;64.50
60717;DHT22;46566;52.700;6.192;2023-04-09T16:59:47;14.80;64.80
60717;DHT22;46566;52.700;6.192;2023-04-09T17:02:13;14.80;64.30
60717;DHT22;46566;52.700;6.192;2023-04-09T17:04:54;14.80;65.60
60717;DHT22;46566;52.700;6.192;2023-04-09T17:07:19;14.70;66.70
60717;DHT22;46566;52.700;6.192;2023-04-09T17:09:46;14.70;65.20
60717;DHT22;46566;52.700;6.192;2023-04-09T17:12:11;14.70;66.30
60717;DHT22;46566;52.700;6.192;2023-04-09T17:14:37;14.60;66.10
60717;DHT22;46566;52.700;6.192;2023-04-09T17:19:57;14.60;67.20
60717;DHT22;46566;52.700;6.192;2023-04-09T17:22:24;14.50;67.00
60717;DHT22;46566;52.700;6.192;2023-04-09T17:24:50;14.50;66.40
60717;DHT22;46566;52.700;6.192;2023-04-09T17:27:34;14.40;67.90
60717;DHT22;46566;52.700;6.192;2023-04-09T17:30:00;14.40;68.20
60717;DHT22;46566;52.700;6.192;2023-04-09T17:32:26;14.30;67.00
60717;DHT22;46566;52.700;6.192;2023-04-09T17:34:52;14.30;66.90
60717;DHT22;46566;52.700;6.192;2023-04-09T17:37:33;14.20;67.50
60717;DHT22;46566;52.700;6.192;2023-04-09T17:39:59;14.20;67.20
60717;DHT22;46566;52.700;6.192;2023-04-09T17:42:25;14.10;67.30
60717;DHT22;46566;52.700;6.192;2023-04-09T17:44:51;14.10;68.60
60717;DHT22;46566;52.700;6.192;2023-04-09T17:47:17;14.10;68.40
60717;DHT22;46566;52.700;6.192;2023-04-09T17:52:33;14.00;69.10
60717;DHT22;46566;52.700;6.192;2023-04-09T17:55:05;13.90;69.70
60717;DHT22;46566;52.700;6.192;2023-04-09T18:00:22;13.80;70.00
60717;DHT22;46566;52.700;6.192;2023-04-09T18:02:50;13.80;70.70
60717;DHT22;46566;52.700;6.192;2023-04-09T18:05:16;13.80;72.10
60717;DHT22;46566;52.700;6.192;2023-04-09T18:10:32;13.70;74.90
60717;DHT22;46566;52.700;6.192;2023-04-09T18:12:58;13.60;74.20
60717;DHT22;46566;52.700;6.192;2023-04-09T18:15:24;13.60;76.00
60717;DHT22;46566;52.700;6.192;2023-04-09T18:17:49;13.50;78.80
60717;DHT22;46566;52.700;6.192;2023-04-09T18:20:15;13.50;80.90
60717;DHT22;46566;52.700;6.192;2023-04-09T18:22:41;13.50;83.70
60717;DHT22;46566;52.700;6.192;2023-04-09T18:25:06;13.40;88.90
60717;DHT22;46566;52.700;6.192;2023-04-09T18:27:32;13.30;90.70
60717;DHT22;46566;52.700;6.192;2023-04-09T18:29:58;13.30;93.20
60717;DHT22;46566;52.700;6.192;2023-04-09T18:32:24;13.20;86.50
60717;DHT22;46566;52.700;6.192;2023-04-09T18:34:50;13.10;94.30
60717;DHT22;46566;52.700;6.192;2023-04-09T18:37:16;13.10;94.70
60717;DHT22;46566;52.700;6.192;2023-04-09T18:39:42;13.00;98.10
60717;DHT22;46566;52.700;6.192;2023-04-09T18:42:08;13.00;96.80
60717;DHT22;46566;52.700;6.192;2023-04-09T18:44:34;13.00;99.90
60717;DHT22;46566;52.700;6.192;2023-04-09T18:47:02;12.90;99.90
60717;DHT22;46566;52.700;6.192;2023-04-09T18:49:32;12.90;99.90
60717;DHT22;46566;52.700;6.192;2023-04-09T18:51:58;12.80;99.90
60717;DHT22;46566;52.700;6.192;2023-04-09T18:54:24;12.80;99.90
60717;DHT22;46566;52.700;6.192;2023-04-09T18:56:50;12.70;99.90
60717;DHT22;46566;52.700;6.192;2023-04-09T18:59:15;12.60;99.90
60717;DHT22;46566;52.700;6.192;2023-04-09T19:01:41;12.60;99.90
60717;DHT22;46566;52.700;6.192;2023-04-09T19:04:07;12.50;99.90
60717;DHT22;46566;52.700;6.192;2023-04-09T19:06:33;12.50;99.90
60717;DHT22;46566;52.700;6.192;2023-04-09T19:09:00;12.40;99.90
60717;DHT22;46566;52.700;6.192;2023-04-09T19:11:26;12.40;99.90
60717;DHT22;46566;52.700;6.192;2023-04-09T19:13:52;12.30;99.90
60717;DHT22;46566;52.700;6.192;2023-04-09T19:16:18;12.30;99.90
60717;DHT22;46566;52.700;6.192;2023-04-09T19:18:44;12.20;99.90